• Join FlightAware (Why Join?)
  • Login
  • US Flag 
04:06AM EDT


 

Airport Tracker/Info


-or-


 

Live Flight TrackerFlight Track Log ✈ UAL4476 ✈ 25-Apr-2013 ✈ KCLE - KBOS

Flight Track Log - Related Links

Times and Time Zones

All times are in EDT time to prevent confusion due to time zone crossing. See the UAL4476 flight status page for this flight to view local times or setup timezone preferences in your user account.

Time Position Orientation Groundspeed Altitude Reporting Facility
EDT Latitude Longitude Course Direction KTS MPH feet Rate Location/Type
08:53AM 41.3919 -81.8811 262° West 155 178 1,900  Level Cleveland Center
08:54AM 41.3894 -81.9061 262° West 165 190 2,500 1,740 Climbing Cleveland Center
08:54AM 41.3911 -81.9422 274° West 206 237 3,600 1,740 Climbing Cleveland Center
08:55AM 41.4322 -81.9900 319° Northwest 213 245 5,200 1,920 Climbing Cleveland Center
08:56AM 41.4933 -81.9275 37° Northeast 162 186 7,500 2,220 Climbing Cleveland Center
08:57AM 41.5486 -81.8456 48° Northeast 226 260 9,700 2,100 Climbing Cleveland Center
08:58AM 41.6036 -81.7606 49° Northeast 276 318 11,800 1,980 Climbing Cleveland Center
08:59AM 41.6361 -81.6389 70° East 300 345 13,700 1,380 Climbing Cleveland Center
09:00AM 41.6664 -81.5142 72° East 333 383 14,600 960 Climbing Cleveland Center
09:01AM 41.6967 -81.3814 73° East 363 418 15,700 1,200 Climbing Cleveland Center
09:02AM 41.7286 -81.2453 73° East 380 437 17,000 1,140 Climbing Cleveland Center
09:03AM 41.7608 -81.1036 73° East 380 437 18,000 1,140 Climbing Cleveland Center
09:04AM 41.7925 -80.9619 73° East 380 437 19,300 1,200 Climbing Cleveland Center
09:05AM 41.8242 -80.8172 74° East 385 443 20,500 1,080 Climbing Cleveland Center
09:06AM 41.8536 -80.6864 73° East 398 458 21,500 1,020 Climbing Cleveland Center
09:07AM 41.8869 -80.5331 74° East 411 473 22,600 1,140 Climbing Cleveland Center
09:08AM 41.9203 -80.3794 74° East 421 484 23,800 1,140 Climbing Cleveland Center
09:09AM 41.9553 -80.2231 73° East 432 497 24,900 1,140 Climbing Cleveland Center
09:10AM 41.9900 -80.0608 74° East 437 503 26,100 1,200 Climbing Cleveland Center
09:11AM 42.0289 -79.8900 73° East 437 503 27,300 1,140 Climbing Cleveland Center
09:12AM 42.0547 -79.7275 78° East 437 503 28,400 1,140 Climbing Cleveland Center
09:13AM 42.0783 -79.5650 79° East 437 503 29,600 1,140 Climbing Cleveland Center
09:14AM 42.1019 -79.3994 79° East 437 503 30,700 1,140 Climbing Cleveland Center
09:15AM 42.1292 -79.2336 77° East 437 503 31,900 1,200 Climbing Cleveland Center
09:16AM 42.1522 -79.0681 79° East 442 509 33,100 1,140 Climbing Cleveland Center
09:17AM 42.1750 -78.9050 79° East 442 509 34,200 900 Climbing Cleveland Center
09:18AM 42.2014 -78.7333 78° East 447 514 35,000 360 Climbing Cleveland Center
09:19AM 42.2258 -78.5642 79° East 447 514 35,000  Level Cleveland Center
09:20AM 42.2494 -78.3811 80° East 460 529 35,000  Level Cleveland Center
09:21AM 42.2769 -78.1950 79° East 486 559 35,000  Level Cleveland Center
09:22AM 42.3022 -78.0058 80° East 505 581 35,000  Level Cleveland Center
09:23AM 42.3250 -77.8197 81° East 505 581 35,000  Level Cleveland Center
09:24AM 42.3517 -77.6303 79° East 505 581 35,000  Level Cleveland Center
09:26AM 42.4000 -77.2656 80° East 528 608 35,000  Level Boston Center
09:27AM 42.4222 -77.0789 81° East 517 595 35,000  Level Boston Center
09:29AM 42.4464 -76.8947 80° East 507 583 35,000  Level Boston Center
09:30AM 42.4739 -76.6658 81° East 507 583 35,000  Level Boston Center
09:31AM 42.4975 -76.4758 80° East 507 583 35,000  Level Boston Center
09:32AM 42.5186 -76.2856 81° East 507 583 35,000 -600 Level Boston Center
09:33AM 42.5406 -76.0672 82° East 520 598 33,900 -1,020 Descending Boston Center
09:34AM 42.5611 -75.8708 82° East 520 598 33,000 -480 Descending Boston Center
09:35AM 42.5761 -75.7194 82° East 520 598 33,000  Level Boston Center
09:36AM 42.5992 -75.4864 82° East 520 598 33,000  Level Boston Center
09:37AM 42.6167 -75.2925 83° East 520 598 33,000  Level Boston Center
09:38AM 42.6339 -75.0986 83° East 520 598 33,000  Level Boston Center
09:39AM 42.6531 -74.8989 82° East 520 598 33,000 -60 Level Boston Center
09:40AM 42.6697 -74.7047 83° East 520 598 32,900  Descending Boston Center
09:41AM 42.6881 -74.5078 83° East 520 598 33,000  Climbing Boston Center
09:42AM 42.7039 -74.3133 84° East 520 598 32,900  Descending Boston Center
09:43AM 42.7194 -74.1131 84° East 520 598 33,000  Climbing Boston Center
09:44AM 42.7347 -73.9183 84° East 520 598 33,000  Level Boston Center
09:45AM 42.7369 -73.7264 89° East 515 593 33,000  Level Boston Center
09:46AM 42.7203 -73.5394 97° East 501 577 33,000  Level Boston Center
09:47AM 42.7011 -73.3553 98° East 501 577 33,000  Level Boston Center
09:48AM 42.6814 -73.1689 98° East 501 577 33,000 -600 Level Boston Center
09:49AM 42.6617 -72.9964 99° East 501 577 31,800 -2,040 Descending Boston Center
09:51AM 42.6169 -72.6375 99° East 486 559 27,000 -2,640 Descending Boston Center
09:52AM 42.5964 -72.4428 98° East 468 539 24,000 -2,940 Descending Boston Center
09:53AM 42.5753 -72.2822 100° East 455 524 21,200 -2,700 Descending Boston Center
09:54AM 42.5564 -72.1497 101° East 421 484 18,700 -2,400 Descending Boston Center
09:55AM 42.5392 -71.9753 98° East 415 478 16,400 -2,400 Descending Boston Center
09:56AM 42.5239 -71.8372 98° East 415 478 13,900 -2,640 Descending Boston Center
09:57AM 42.5103 -71.6769 97° East 399 459 11,200 -1,620 Descending Boston Center
09:58AM 42.4992 -71.5558 97° East 369 425 10,700 -1,020 Descending Boston Center
09:59AM 42.4856 -71.4267 98° East 328 377 9,200 -1,380 Descending Boston Center
09:59AM 42.4833 -71.4000 96° East 316 364 9,000 -420 Descending KA90
10:00AM 42.4667 -71.2667 100° East 314 361 8,700 -720 Descending KA90
10:01AM 42.4667 -71.1667 90° East 274 315 7,600 -900 Descending KA90
10:02AM 42.4500 -71.0667 103° East 255 293 7,000 -660 Descending KA90
10:03AM 42.4333 -70.9833 105° East 243 280 6,300 -960 Descending KA90
10:04AM 42.3833 -70.9167 135° Southeast 239 275 5,100 -1,140 Descending KA90
10:05AM 42.3625 -70.8667 119° Southeast 237 273 4,400 -720 Descending Boston Center
10:06AM 42.3261 -70.8058 129° Southeast 237 273 3,900 -300 Descending Boston Center
10:07AM 42.2753 -70.7481 140° Southeast 242 278 3,900 -120 Level Boston Center
10:08AM 42.2425 -70.7939 226° Southwest 174 200 3,700 -540 Descending Boston Center
10:09AM 42.2539 -70.8553 284° West 114 131 2,900 -900 Descending Boston Center
10:10AM 42.2858 -70.8994 314° West 124 143 2,000 -960 Descending Boston Center
10:10AM 42.3000 -70.9167 318° Northwest 171 197 1,700 -900 Descending KA90
10:11AM 42.3167 -70.9500 304° West 134 154 900 -780 Descending KA90
10:12AM 42.3500 -70.9833 324° Northwest 131 151 200 -720 Descending KA90